sensor_id;sensor_type;location;lat;lon;timestamp;temperature;humidity
6988;DHT22;3534;49.960;8.018;2023-01-08T00:00:54;10.40;99.90
6988;DHT22;3534;49.960;8.018;2023-01-08T00:03:21;10.40;99.90
6988;DHT22;3534;49.960;8.018;2023-01-08T00:05:49;10.50;99.90
6988;DHT22;3534;49.960;8.018;2023-01-08T00:08:17;10.50;99.90
6988;DHT22;3534;49.960;8.018;2023-01-08T00:10:43;10.50;99.90
6988;DHT22;3534;49.960;8.018;2023-01-08T00:13:10;10.50;99.90
6988;DHT22;3534;49.960;8.018;2023-01-08T00:15:37;10.50;99.90
6988;DHT22;3534;49.960;8.018;2023-01-08T00:18:03;10.50;99.90
6988;DHT22;3534;49.960;8.018;2023-01-08T00:20:30;10.50;99.90
6988;DHT22;3534;49.960;8.018;2023-01-08T00:22:56;10.50;99.90
6988;DHT22;3534;49.960;8.018;2023-01-08T00:25:24;10.60;99.90
6988;DHT22;3534;49.960;8.018;2023-01-08T00:27:51;10.60;99.90
6988;DHT22;3534;49.960;8.018;2023-01-08T00:30:18;10.60;99.90
6988;DHT22;3534;49.960;8.018;2023-01-08T00:32:44;10.60;99.90
6988;DHT22;3534;49.960;8.018;2023-01-08T00:35:11;10.60;99.90
6988;DHT22;3534;49.960;8.018;2023-01-08T00:37:38;10.60;99.90
6988;DHT22;3534;49.960;8.018;2023-01-08T00:40:06;10.60;99.90
6988;DHT22;3534;49.960;8.018;2023-01-08T00:42:34;10.60;99.90
6988;DHT22;3534;49.960;8.018;2023-01-08T00:45:01;10.60;99.90
6988;DHT22;3534;49.960;8.018;2023-01-08T00:47:27;10.60;99.90
6988;DHT22;3534;49.960;8.018;2023-01-08T00:49:54;10.60;99.90
6988;DHT22;3534;49.960;8.018;2023-01-08T00:52:20;10.60;99.90
6988;DHT22;3534;49.960;8.018;2023-01-08T00:54:47;10.60;99.90
6988;DHT22;3534;49.960;8.018;2023-01-08T00:57:14;10.50;99.90
6988;DHT22;3534;49.960;8.018;2023-01-08T00:59:42;10.50;99.90
6988;DHT22;3534;49.960;8.018;2023-01-08T01:02:08;10.40;99.90
6988;DHT22;3534;49.960;8.018;2023-01-08T01:04:35;10.30;99.90
6988;DHT22;3534;49.960;8.018;2023-01-08T01:07:02;10.20;99.90
6988;DHT22;3534;49.960;8.018;2023-01-08T01:09:29;10.10;99.90
6988;DHT22;3534;49.960;8.018;2023-01-08T01:11:56;10.10;99.90
6988;DHT22;3534;49.960;8.018;2023-01-08T01:14:23;10.10;99.90
6988;DHT22;3534;49.960;8.018;2023-01-08T01:16:51;10.20;99.90
6988;DHT22;3534;49.960;8.018;2023-01-08T01:19:17;10.20;99.90
6988;DHT22;3534;49.960;8.018;2023-01-08T01:21:44;10.20;99.90
6988;DHT22;3534;49.960;8.018;2023-01-08T01:24:12;10.30;99.90
6988;DHT22;3534;49.960;8.018;2023-01-08T01:26:40;10.30;99.90
6988;DHT22;3534;49.960;8.018;2023-01-08T01:29:07;10.40;99.90
6988;DHT22;3534;49.960;8.018;2023-01-08T01:31:34;10.50;99.90
6988;DHT22;3534;49.960;8.018;2023-01-08T01:34:02;10.50;99.90
6988;DHT22;3534;49.960;8.018;2023-01-08T01:36:29;10.70;99.90
6988;DHT22;3534;49.960;8.018;2023-01-08T01:38:56;10.70;99.90
6988;DHT22;3534;49.960;8.018;2023-01-08T01:41:26;10.80;99.90
6988;DHT22;3534;49.960;8.018;2023-01-08T01:43:54;10.90;99.90
6988;DHT22;3534;49.960;8.018;2023-01-08T01:46:29;10.90;99.90
6988;DHT22;3534;49.960;8.018;2023-01-08T01:49:03;11.00;99.90
6988;DHT22;3534;49.960;8.018;2023-01-08T01:51:32;11.00;99.90
6988;DHT22;3534;49.960;8.018;2023-01-08T01:54:01;11.10;99.90
6988;DHT22;3534;49.960;8.018;2023-01-08T01:56:30;11.10;99.90
6988;DHT22;3534;49.960;8.018;2023-01-08T01:58:57;11.10;99.90
6988;DHT22;3534;49.960;8.018;2023-01-08T02:01:24;11.10;99.90
6988;DHT22;3534;49.960;8.018;2023-01-08T02:03:51;11.10;99.90
6988;DHT22;3534;49.960;8.018;2023-01-08T02:06:34;11.20;99.90
6988;DHT22;3534;49.960;8.018;2023-01-08T02:09:05;11.20;99.90
6988;DHT22;3534;49.960;8.018;2023-01-08T02:11:43;11.20;99.90
6988;DHT22;3534;49.960;8.018;2023-01-08T02:14:15;11.20;99.90
6988;DHT22;3534;49.960;8.018;2023-01-08T02:16:46;11.20;99.90
6988;DHT22;3534;49.960;8.018;2023-01-08T02:19:22;11.20;99.90
6988;DHT22;3534;49.960;8.018;2023-01-08T02:22:01;11.20;99.90
6988;DHT22;3534;49.960;8.018;2023-01-08T02:24:41;11.30;99.90
6988;DHT22;3534;49.960;8.018;2023-01-08T02:27:12;11.30;99.90
6988;DHT22;3534;49.960;8.018;2023-01-08T02:29:40;11.30;99.90
6988;DHT22;3534;49.960;8.018;2023-01-08T02:32:06;11.30;99.90
6988;DHT22;3534;49.960;8.018;2023-01-08T02:34:33;11.30;99.90
6988;DHT22;3534;49.960;8.018;2023-01-08T02:37:00;11.30;99.90
6988;DHT22;3534;49.960;8.018;2023-01-08T02:39:54;11.30;99.90
6988;DHT22;3534;49.960;8.018;2023-01-08T02:42:34;11.30;99.90
6988;DHT22;3534;49.960;8.018;2023-01-08T02:45:06;11.30;99.90
6988;DHT22;3534;49.960;8.018;2023-01-08T02:47:37;11.20;99.90
6988;DHT22;3534;49.960;8.018;2023-01-08T02:50:13;11.20;99.90
6988;DHT22;3534;49.960;8.018;2023-01-08T02:52:47;11.20;99.90
6988;DHT22;3534;49.960;8.018;2023-01-08T02:55:16;11.20;99.90
6988;DHT22;3534;49.960;8.018;2023-01-08T02:57:46;11.20;99.90
6988;DHT22;3534;49.960;8.018;2023-01-08T03:00:14;11.20;99.90
6988;DHT22;3534;49.960;8.018;2023-01-08T03:02:42;11.20;99.90
6988;DHT22;3534;49.960;8.018;2023-01-08T03:05:15;11.20;99.90
6988;DHT22;3534;49.960;8.018;2023-01-08T03:07:46;11.20;99.90
6988;DHT22;3534;49.960;8.018;2023-01-08T03:10:12;11.20;99.90
6988;DHT22;3534;49.960;8.018;2023-01-08T03:12:48;11.20;99.90
6988;DHT22;3534;49.960;8.018;2023-01-08T03:15:22;11.20;99.90
6988;DHT22;3534;49.960;8.018;2023-01-08T03:17:51;11.20;99.90
6988;DHT22;3534;49.960;8.018;2023-01-08T03:20:21;11.20;99.90
6988;DHT22;3534;49.960;8.018;2023-01-08T03:22:52;11.20;99.90
6988;DHT22;3534;49.960;8.018;2023-01-08T03:25:22;11.20;99.90
6988;DHT22;3534;49.960;8.018;2023-01-08T03:27:54;11.20;99.90
6988;DHT22;3534;49.960;8.018;2023-01-08T03:30:23;11.20;99.90
6988;DHT22;3534;49.960;8.018;2023-01-08T03:32:52;11.20;99.90
6988;DHT22;3534;49.960;8.018;2023-01-08T03:35:21;11.20;99.90
6988;DHT22;3534;49.960;8.018;2023-01-08T03:37:53;11.20;99.90
6988;DHT22;3534;49.960;8.018;2023-01-08T03:40:24;11.20;99.90
6988;DHT22;3534;49.960;8.018;2023-01-08T03:42:55;11.20;99.90
6988;DHT22;3534;49.960;8.018;2023-01-08T03:45:23;11.20;99.90
6988;DHT22;3534;49.960;8.018;2023-01-08T03:47:51;11.20;99.90
6988;DHT22;3534;49.960;8.018;2023-01-08T03:50:22;11.20;99.90
6988;DHT22;3534;49.960;8.018;2023-01-08T03:52:50;11.20;99.90
6988;DHT22;3534;49.960;8.018;2023-01-08T03:55:17;11.20;99.90
6988;DHT22;3534;49.960;8.018;2023-01-08T03:57:44;11.20;99.90
6988;DHT22;3534;49.960;8.018;2023-01-08T04:00:13;11.20;99.90
6988;DHT22;3534;49.960;8.018;2023-01-08T04:02:40;11.20;99.90
6988;DHT22;3534;49.960;8.018;2023-01-08T04:05:07;11.20;99.90
6988;DHT22;3534;49.960;8.018;2023-01-08T04:07:34;11.20;99.90
6988;DHT22;3534;49.960;8.018;2023-01-08T04:10:01;11.20;99.90
6988;DHT22;3534;49.960;8.018;2023-01-08T04:12:27;11.20;99.90
6988;DHT22;3534;49.960;8.018;2023-01-08T04:14:54;11.20;99.90
6988;DHT22;3534;49.960;8.018;2023-01-08T04:17:22;11.20;99.90
6988;DHT22;3534;49.960;8.018;2023-01-08T04:19:49;11.20;99.90
6988;DHT22;3534;49.960;8.018;2023-01-08T04:22:15;11.20;99.90
6988;DHT22;3534;49.960;8.018;2023-01-08T04:24:42;11.20;99.90
6988;DHT22;3534;49.960;8.018;2023-01-08T04:27:08;11.20;99.90
6988;DHT22;3534;49.960;8.018;2023-01-08T04:29:35;11.20;99.90
6988;DHT22;3534;49.960;8.018;2023-01-08T04:32:02;11.10;99.90
6988;DHT22;3534;49.960;8.018;2023-01-08T04:34:30;11.10;99.90
6988;DHT22;3534;49.960;8.018;2023-01-08T04:36:56;11.00;99.90
6988;DHT22;3534;49.960;8.018;2023-01-08T04:39:24;11.00;99.90
6988;DHT22;3534;49.960;8.018;2023-01-08T04:41:50;11.00;99.90
6988;DHT22;3534;49.960;8.018;2023-01-08T04:44:17;11.00;99.90
6988;DHT22;3534;49.960;8.018;2023-01-08T04:46:43;11.10;99.90
6988;DHT22;3534;49.960;8.018;2023-01-08T04:49:11;11.10;99.90
6988;DHT22;3534;49.960;8.018;2023-01-08T04:51:39;11.20;99.90
6988;DHT22;3534;49.960;8.018;2023-01-08T04:54:06;11.20;99.90
6988;DHT22;3534;49.960;8.018;2023-01-08T04:56:32;11.20;99.90
6988;DHT22;3534;49.960;8.018;2023-01-08T04:58:59;11.20;99.90
6988;DHT22;3534;49.960;8.018;2023-01-08T05:01:26;11.20;99.90
6988;DHT22;3534;49.960;8.018;2023-01-08T05:03:54;11.20;99.90
6988;DHT22;3534;49.960;8.018;2023-01-08T05:06:21;11.20;99.90
6988;DHT22;3534;49.960;8.018;2023-01-08T05:08:49;11.20;99.90
6988;DHT22;3534;49.960;8.018;2023-01-08T05:11:16;11.10;99.90
6988;DHT22;3534;49.960;8.018;2023-01-08T05:13:42;11.10;99.90
6988;DHT22;3534;49.960;8.018;2023-01-08T05:16:09;11.10;99.90
6988;DHT22;3534;49.960;8.018;2023-01-08T05:18:35;11.10;99.90
6988;DHT22;3534;49.960;8.018;2023-01-08T05:21:03;11.10;99.90
6988;DHT22;3534;49.960;8.018;2023-01-08T05:23:31;11.10;99.90
6988;DHT22;3534;49.960;8.018;2023-01-08T05:25:59;11.10;99.90
6988;DHT22;3534;49.960;8.018;2023-01-08T05:28:27;11.10;99.90
6988;DHT22;3534;49.960;8.018;2023-01-08T05:30:53;11.10;99.90
6988;DHT22;3534;49.960;8.018;2023-01-08T05:33:20;11.10;99.90
6988;DHT22;3534;49.960;8.018;2023-01-08T05:35:47;11.10;99.90
6988;DHT22;3534;49.960;8.018;2023-01-08T05:38:14;11.10;99.90
6988;DHT22;3534;49.960;8.018;2023-01-08T05:40:41;11.10;99.90
6988;DHT22;3534;49.960;8.018;2023-01-08T05:43:09;11.10;99.90
6988;DHT22;3534;49.960;8.018;2023-01-08T05:45:36;11.10;99.90
6988;DHT22;3534;49.960;8.018;2023-01-08T05:48:04;11.00;99.90
6988;DHT22;3534;49.960;8.018;2023-01-08T05:50:31;11.00;99.90
6988;DHT22;3534;49.960;8.018;2023-01-08T05:52:58;11.00;99.90
6988;DHT22;3534;49.960;8.018;2023-01-08T05:55:24;10.90;99.90
6988;DHT22;3534;49.960;8.018;2023-01-08T05:57:51;10.90;99.90
6988;DHT22;3534;49.960;8.018;2023-01-08T06:00:19;10.90;99.90
6988;DHT22;3534;49.960;8.018;2023-01-08T06:02:46;10.90;99.90
6988;DHT22;3534;49.960;8.018;2023-01-08T06:05:13;11.00;99.90
6988;DHT22;3534;49.960;8.018;2023-01-08T06:07:39;11.00;99.90
6988;DHT22;3534;49.960;8.018;2023-01-08T06:10:07;11.00;99.90
6988;DHT22;3534;49.960;8.018;2023-01-08T06:12:34;11.00;99.90
6988;DHT22;3534;49.960;8.018;2023-01-08T06:15:00;11.00;99.90
6988;DHT22;3534;49.960;8.018;2023-01-08T06:17:28;11.00;99.90
6988;DHT22;3534;49.960;8.018;2023-01-08T06:19:55;11.00;99.90
6988;DHT22;3534;49.960;8.018;2023-01-08T06:22:21;11.00;99.90
6988;DHT22;3534;49.960;8.018;2023-01-08T06:24:48;11.00;99.90
6988;DHT22;3534;49.960;8.018;2023-01-08T06:27:15;11.00;99.90
6988;DHT22;3534;49.960;8.018;2023-01-08T06:29:41;11.10;99.90
6988;DHT22;3534;49.960;8.018;2023-01-08T06:32:08;11.10;99.90
6988;DHT22;3534;49.960;8.018;2023-01-08T06:34:36;11.10;99.90
6988;DHT22;3534;49.960;8.018;2023-01-08T06:37:03;11.10;99.90
6988;DHT22;3534;49.960;8.018;2023-01-08T06:39:29;11.10;99.90
6988;DHT22;3534;49.960;8.018;2023-01-08T06:41:56;11.10;99.90
6988;DHT22;3534;49.960;8.018;2023-01-08T06:44:23;11.10;99.90
6988;DHT22;3534;49.960;8.018;2023-01-08T06:46:49;11.10;99.90
6988;DHT22;3534;49.960;8.018;2023-01-08T06:49:16;11.10;99.90
6988;DHT22;3534;49.960;8.018;2023-01-08T06:51:45;11.10;99.90
6988;DHT22;3534;49.960;8.018;2023-01-08T06:54:12;11.10;99.90
6988;DHT22;3534;49.960;8.018;2023-01-08T06:56:38;11.10;99.90
6988;DHT22;3534;49.960;8.018;2023-01-08T06:59:05;11.10;99.90
6988;DHT22;3534;49.960;8.018;2023-01-08T07:01:32;11.10;99.90
6988;DHT22;3534;49.960;8.018;2023-01-08T07:03:58;11.10;99.90
6988;DHT22;3534;49.960;8.018;2023-01-08T07:06:25;11.10;99.90
6988;DHT22;3534;49.960;8.018;2023-01-08T07:08:53;11.00;99.90
6988;DHT22;3534;49.960;8.018;2023-01-08T07:11:19;11.00;99.90
6988;DHT22;3534;49.960;8.018;2023-01-08T07:13:46;11.00;99.90
6988;DHT22;3534;49.960;8.018;2023-01-08T07:16:13;11.00;99.90
6988;DHT22;3534;49.960;8.018;2023-01-08T07:18:40;11.00;99.90
6988;DHT22;3534;49.960;8.018;2023-01-08T07:21:07;11.00;99.90
6988;DHT22;3534;49.960;8.018;2023-01-08T07:23:35;11.00;99.90
6988;DHT22;3534;49.960;8.018;2023-01-08T07:26:05;11.00;99.90
6988;DHT22;3534;49.960;8.018;2023-01-08T07:28:32;11.00;99.90
6988;DHT22;3534;49.960;8.018;2023-01-08T07:31:02;11.00;99.90
6988;DHT22;3534;49.960;8.018;2023-01-08T07:33:28;11.00;99.90
6988;DHT22;3534;49.960;8.018;2023-01-08T07:35:55;11.00;99.90
6988;DHT22;3534;49.960;8.018;2023-01-08T07:38:22;11.00;99.90
6988;DHT22;3534;49.960;8.018;2023-01-08T07:40:49;11.00;99.90
6988;DHT22;3534;49.960;8.018;2023-01-08T07:43:17;11.00;99.90
6988;DHT22;3534;49.960;8.018;2023-01-08T07:45:44;11.00;99.90
6988;DHT22;3534;49.960;8.018;2023-01-08T07:48:10;10.90;99.90
6988;DHT22;3534;49.960;8.018;2023-01-08T07:50:40;10.90;99.90
6988;DHT22;3534;49.960;8.018;2023-01-08T07:53:08;10.90;99.90
6988;DHT22;3534;49.960;8.018;2023-01-08T07:55:35;10.90;99.90
6988;DHT22;3534;49.960;8.018;2023-01-08T07:58:06;10.80;99.90
6988;DHT22;3534;49.960;8.018;2023-01-08T08:00:35;10.80;99.90
6988;DHT22;3534;49.960;8.018;2023-01-08T08:03:03;10.80;99.90
6988;DHT22;3534;49.960;8.018;2023-01-08T08:05:30;10.80;99.90
6988;DHT22;3534;49.960;8.018;2023-01-08T08:07:57;10.80;99.90
6988;DHT22;3534;49.960;8.018;2023-01-08T08:10:23;10.80;99.90
6988;DHT22;3534;49.960;8.018;2023-01-08T08:12:50;10.80;99.90
6988;DHT22;3534;49.960;8.018;2023-01-08T08:15:17;10.80;99.90
6988;DHT22;3534;49.960;8.018;2023-01-08T08:17:46;10.80;99.90
6988;DHT22;3534;49.960;8.018;2023-01-08T08:20:13;10.80;99.90
6988;DHT22;3534;49.960;8.018;2023-01-08T08:22:40;10.80;99.90
6988;DHT22;3534;49.960;8.018;2023-01-08T08:25:07;10.80;99.90
6988;DHT22;3534;49.960;8.018;2023-01-08T08:27:34;10.80;99.90
6988;DHT22;3534;49.960;8.018;2023-01-08T08:30:00;10.80;99.90
6988;DHT22;3534;49.960;8.018;2023-01-08T08:32:27;10.80;99.90
6988;DHT22;3534;49.960;8.018;2023-01-08T08:34:55;10.80;99.90
6988;DHT22;3534;49.960;8.018;2023-01-08T08:37:22;10.80;99.90
6988;DHT22;3534;49.960;8.018;2023-01-08T08:39:48;10.80;99.90
6988;DHT22;3534;49.960;8.018;2023-01-08T08:42:15;10.80;99.90
6988;DHT22;3534;49.960;8.018;2023-01-08T08:44:41;10.80;99.90
6988;DHT22;3534;49.960;8.018;2023-01-08T08:47:08;10.80;99.90
6988;DHT22;3534;49.960;8.018;2023-01-08T08:49:35;10.80;99.90
6988;DHT22;3534;49.960;8.018;2023-01-08T08:52:03;10.80;99.90
6988;DHT22;3534;49.960;8.018;2023-01-08T08:54:30;10.90;99.90
6988;DHT22;3534;49.960;8.018;2023-01-08T08:56:57;10.90;99.90
6988;DHT22;3534;49.960;8.018;2023-01-08T08:59:23;10.90;99.90
6988;DHT22;3534;49.960;8.018;2023-01-08T09:01:50;10.90;99.90
6988;DHT22;3534;49.960;8.018;2023-01-08T09:04:17;10.80;99.90
6988;DHT22;3534;49.960;8.018;2023-01-08T09:06:43;10.80;99.90
6988;DHT22;3534;49.960;8.018;2023-01-08T09:09:11;10.80;99.90
6988;DHT22;3534;49.960;8.018;2023-01-08T09:11:39;10.80;99.90
6988;DHT22;3534;49.960;8.018;2023-01-08T09:14:06;10.80;99.90
6988;DHT22;3534;49.960;8.018;2023-01-08T09:16:33;10.80;99.90
6988;DHT22;3534;49.960;8.018;2023-01-08T09:19:01;10.80;99.90
6988;DHT22;3534;49.960;8.018;2023-01-08T09:21:28;10.80;99.90
6988;DHT22;3534;49.960;8.018;2023-01-08T09:23:55;10.80;99.90
6988;DHT22;3534;49.960;8.018;2023-01-08T09:26:23;10.90;99.90
6988;DHT22;3534;49.960;8.018;2023-01-08T09:28:53;10.90;99.90
6988;DHT22;3534;49.960;8.018;2023-01-08T09:31:19;10.90;99.90
6988;DHT22;3534;49.960;8.018;2023-01-08T09:33:46;10.90;99.90
6988;DHT22;3534;49.960;8.018;2023-01-08T09:36:13;10.90;99.90
6988;DHT22;3534;49.960;8.018;2023-01-08T09:38:40;10.80;99.90
6988;DHT22;3534;49.960;8.018;2023-01-08T09:41:10;10.90;99.90
6988;DHT22;3534;49.960;8.018;2023-01-08T09:43:40;10.90;99.90
6988;DHT22;3534;49.960;8.018;2023-01-08T09:46:09;10.90;99.90
6988;DHT22;3534;49.960;8.018;2023-01-08T09:48:38;10.90;99.90
6988;DHT22;3534;49.960;8.018;2023-01-08T09:51:08;10.90;99.90
6988;DHT22;3534;49.960;8.018;2023-01-08T09:53:35;11.00;99.90
6988;DHT22;3534;49.960;8.018;2023-01-08T09:56:05;11.00;99.90
6988;DHT22;3534;49.960;8.018;2023-01-08T09:58:39;11.00;99.90
6988;DHT22;3534;49.960;8.018;2023-01-08T10:01:08;11.00;99.90
6988;DHT22;3534;49.960;8.018;2023-01-08T10:03:40;11.00;99.90
6988;DHT22;3534;49.960;8.018;2023-01-08T10:06:09;11.00;99.90
6988;DHT22;3534;49.960;8.018;2023-01-08T10:08:36;11.00;99.90
6988;DHT22;3534;49.960;8.018;2023-01-08T10:11:03;11.00;99.90
6988;DHT22;3534;49.960;8.018;2023-01-08T10:13:30;11.00;99.90
6988;DHT22;3534;49.960;8.018;2023-01-08T10:15:59;11.00;99.90
6988;DHT22;3534;49.960;8.018;2023-01-08T10:18:26;11.00;99.90
6988;DHT22;3534;49.960;8.018;2023-01-08T10:20:54;11.00;99.90
6988;DHT22;3534;49.960;8.018;2023-01-08T10:23:21;11.00;99.90
6988;DHT22;3534;49.960;8.018;2023-01-08T10:25:51;11.00;99.90
6988;DHT22;3534;49.960;8.018;2023-01-08T10:28:21;11.10;99.90
6988;DHT22;3534;49.960;8.018;2023-01-08T10:30:50;11.10;99.90
6988;DHT22;3534;49.960;8.018;2023-01-08T10:33:20;11.10;99.90
6988;DHT22;3534;49.960;8.018;2023-01-08T10:35:54;11.10;99.90
6988;DHT22;3534;49.960;8.018;2023-01-08T10:38:25;11.10;99.90
6988;DHT22;3534;49.960;8.018;2023-01-08T10:40:52;11.10;99.90
6988;DHT22;3534;49.960;8.018;2023-01-08T10:43:22;11.20;99.90
6988;DHT22;3534;49.960;8.018;2023-01-08T10:45:55;11.20;99.90
6988;DHT22;3534;49.960;8.018;2023-01-08T10:48:28;11.30;99.90
6988;DHT22;3534;49.960;8.018;2023-01-08T10:51:04;11.40;99.90
6988;DHT22;3534;49.960;8.018;2023-01-08T10:53:31;11.40;99.90
6988;DHT22;3534;49.960;8.018;2023-01-08T10:55:59;11.50;99.90
6988;DHT22;3534;49.960;8.018;2023-01-08T10:58:27;11.50;99.90
6988;DHT22;3534;49.960;8.018;2023-01-08T11:00:54;11.50;99.90
6988;DHT22;3534;49.960;8.018;2023-01-08T11:03:27;11.60;99.90
6988;DHT22;3534;49.960;8.018;2023-01-08T11:05:54;11.60;99.90
6988;DHT22;3534;49.960;8.018;2023-01-08T11:08:21;11.60;99.90
6988;DHT22;3534;49.960;8.018;2023-01-08T11:10:53;11.60;99.90
6988;DHT22;3534;49.960;8.018;2023-01-08T11:13:21;11.70;99.90
6988;DHT22;3534;49.960;8.018;2023-01-08T11:16:01;11.70;99.90
6988;DHT22;3534;49.960;8.018;2023-01-08T11:18:29;11.80;99.90
6988;DHT22;3534;49.960;8.018;2023-01-08T11:21:06;11.80;99.90
6988;DHT22;3534;49.960;8.018;2023-01-08T11:23:33;11.80;99.90
6988;DHT22;3534;49.960;8.018;2023-01-08T11:26:05;11.80;99.90
6988;DHT22;3534;49.960;8.018;2023-01-08T11:28:43;11.80;99.90
6988;DHT22;3534;49.960;8.018;2023-01-08T11:31:14;11.80;99.90
6988;DHT22;3534;49.960;8.018;2023-01-08T11:33:46;11.80;99.90
6988;DHT22;3534;49.960;8.018;2023-01-08T11:36:21;11.80;99.90
6988;DHT22;3534;49.960;8.018;2023-01-08T11:38:49;11.80;99.90
6988;DHT22;3534;49.960;8.018;2023-01-08T11:41:36;11.80;99.90
6988;DHT22;3534;49.960;8.018;2023-01-08T11:44:16;11.80;99.90
6988;DHT22;3534;49.960;8.018;2023-01-08T11:46:51;11.80;99.90
6988;DHT22;3534;49.960;8.018;2023-01-08T11:49:40;11.80;99.90
6988;DHT22;3534;49.960;8.018;2023-01-08T11:52:26;11.80;99.90
6988;DHT22;3534;49.960;8.018;2023-01-08T11:55:14;11.80;99.90
6988;DHT22;3534;49.960;8.018;2023-01-08T11:57:55;11.80;99.90
6988;DHT22;3534;49.960;8.018;2023-01-08T12:00:36;11.80;99.90
6988;DHT22;3534;49.960;8.018;2023-01-08T12:03:13;11.80;99.90
6988;DHT22;3534;49.960;8.018;2023-01-08T12:05:46;11.80;99.90
6988;DHT22;3534;49.960;8.018;2023-01-08T12:08:19;11.80;99.90
6988;DHT22;3534;49.960;8.018;2023-01-08T12:10:57;11.80;99.90
6988;DHT22;3534;49.960;8.018;2023-01-08T12:13:44;11.70;99.90
6988;DHT22;3534;49.960;8.018;2023-01-08T12:16:33;11.70;99.90
6988;DHT22;3534;49.960;8.018;2023-01-08T12:19:13;11.70;99.90
6988;DHT22;3534;49.960;8.018;2023-01-08T12:21:52;11.60;99.90
6988;DHT22;3534;49.960;8.018;2023-01-08T12:24:34;11.60;99.90
6988;DHT22;3534;49.960;8.018;2023-01-08T12:27:15;11.60;99.90
6988;DHT22;3534;49.960;8.018;2023-01-08T12:30:00;11.60;99.90
6988;DHT22;3534;49.960;8.018;2023-01-08T12:32:31;11.60;99.90
6988;DHT22;3534;49.960;8.018;2023-01-08T12:35:04;11.60;99.90
6988;DHT22;3534;49.960;8.018;2023-01-08T12:37:40;11.60;99.90
6988;DHT22;3534;49.960;8.018;2023-01-08T12:40:13;11.60;99.90
6988;DHT22;3534;49.960;8.018;2023-01-08T12:42:42;11.50;99.90
6988;DHT22;3534;49.960;8.018;2023-01-08T12:45:16;11.50;99.90
6988;DHT22;3534;49.960;8.018;2023-01-08T12:47:47;11.50;99.90
6988;DHT22;3534;49.960;8.018;2023-01-08T12:50:23;11.50;99.90
6988;DHT22;3534;49.960;8.018;2023-01-08T12:52:56;11.60;99.90
6988;DHT22;3534;49.960;8.018;2023-01-08T12:55:34;11.50;99.90
6988;DHT22;3534;49.960;8.018;2023-01-08T12:58:16;11.60;99.90
6988;DHT22;3534;49.960;8.018;2023-01-08T13:00:50;11.60;99.90
6988;DHT22;3534;49.960;8.018;2023-01-08T13:03:22;11.60;99.90
6988;DHT22;3534;49.960;8.018;2023-01-08T13:05:50;11.60;99.90
6988;DHT22;3534;49.960;8.018;2023-01-08T13:08:29;11.60;99.90
6988;DHT22;3534;49.960;8.018;2023-01-08T13:10:57;11.60;99.90
6988;DHT22;3534;49.960;8.018;2023-01-08T13:13:26;11.60;99.90
6988;DHT22;3534;49.960;8.018;2023-01-08T13:16:06;11.60;99.90
6988;DHT22;3534;49.960;8.018;2023-01-08T13:18:33;11.60;99.90
6988;DHT22;3534;49.960;8.018;2023-01-08T13:21:01;11.60;99.90
6988;DHT22;3534;49.960;8.018;2023-01-08T13:23:32;11.60;99.90
6988;DHT22;3534;49.960;8.018;2023-01-08T13:26:01;11.60;99.90
6988;DHT22;3534;49.960;8.018;2023-01-08T13:28:37;11.60;99.90
6988;DHT22;3534;49.960;8.018;2023-01-08T13:31:13;11.70;99.90
6988;DHT22;3534;49.960;8.018;2023-01-08T13:33:51;11.70;99.90
6988;DHT22;3534;49.960;8.018;2023-01-08T13:36:21;11.70;99.90
6988;DHT22;3534;49.960;8.018;2023-01-08T13:39:04;11.70;99.90
6988;DHT22;3534;49.960;8.018;2023-01-08T13:41:33;11.70;99.90
6988;DHT22;3534;49.960;8.018;2023-01-08T13:44:01;11.70;99.90
6988;DHT22;3534;49.960;8.018;2023-01-08T13:46:30;11.70;99.90
6988;DHT22;3534;49.960;8.018;2023-01-08T13:49:00;11.70;99.90
6988;DHT22;3534;49.960;8.018;2023-01-08T13:51:43;11.70;99.90
6988;DHT22;3534;49.960;8.018;2023-01-08T13:54:21;11.70;99.90
6988;DHT22;3534;49.960;8.018;2023-01-08T13:56:53;11.70;99.90
6988;DHT22;3534;49.960;8.018;2023-01-08T13:59:33;11.70;99.90
6988;DHT22;3534;49.960;8.018;2023-01-08T14:02:02;11.70;99.90
6988;DHT22;3534;49.960;8.018;2023-01-08T14:04:29;11.70;99.90
6988;DHT22;3534;49.960;8.018;2023-01-08T14:07:06;11.70;99.90
6988;DHT22;3534;49.960;8.018;2023-01-08T14:09:38;11.80;99.90
6988;DHT22;3534;49.960;8.018;2023-01-08T14:12:05;11.80;99.90
6988;DHT22;3534;49.960;8.018;2023-01-08T14:14:31;11.80;99.90
6988;DHT22;3534;49.960;8.018;2023-01-08T14:16:58;11.90;99.90
6988;DHT22;3534;49.960;8.018;2023-01-08T14:19:25;11.90;99.90
6988;DHT22;3534;49.960;8.018;2023-01-08T14:21:55;11.90;99.90
6988;DHT22;3534;49.960;8.018;2023-01-08T14:24:23;11.90;99.90
6988;DHT22;3534;49.960;8.018;2023-01-08T14:26:53;11.90;99.90
6988;DHT22;3534;49.960;8.018;2023-01-08T14:29:21;11.90;99.90
6988;DHT22;3534;49.960;8.018;2023-01-08T14:31:50;12.00;99.90
6988;DHT22;3534;49.960;8.018;2023-01-08T14:34:18;12.00;99.90
6988;DHT22;3534;49.960;8.018;2023-01-08T14:36:45;12.00;99.90
6988;DHT22;3534;49.960;8.018;2023-01-08T14:39:21;12.00;99.90
6988;DHT22;3534;49.960;8.018;2023-01-08T14:41:49;12.10;99.90
6988;DHT22;3534;49.960;8.018;2023-01-08T14:44:37;12.10;99.90
6988;DHT22;3534;49.960;8.018;2023-01-08T14:47:05;12.10;99.90
6988;DHT22;3534;49.960;8.018;2023-01-08T14:49:33;12.10;99.90
6988;DHT22;3534;49.960;8.018;2023-01-08T14:52:09;12.10;99.90
6988;DHT22;3534;49.960;8.018;2023-01-08T14:54:36;12.00;99.90
6988;DHT22;3534;49.960;8.018;2023-01-08T14:57:03;12.00;99.90
6988;DHT22;3534;49.960;8.018;2023-01-08T14:59:33;12.00;99.90
6988;DHT22;3534;49.960;8.018;2023-01-08T15:02:05;12.00;99.90
6988;DHT22;3534;49.960;8.018;2023-01-08T15:04:33;12.00;99.90
6988;DHT22;3534;49.960;8.018;2023-01-08T15:07:07;12.00;99.90
6988;DHT22;3534;49.960;8.018;2023-01-08T15:09:35;12.00;99.90
6988;DHT22;3534;49.960;8.018;2023-01-08T15:12:03;12.00;99.90
6988;DHT22;3534;49.960;8.018;2023-01-08T15:14:31;11.90;99.90
6988;DHT22;3534;49.960;8.018;2023-01-08T15:17:09;11.90;99.90
6988;DHT22;3534;49.960;8.018;2023-01-08T15:19:40;11.90;99.90
6988;DHT22;3534;49.960;8.018;2023-01-08T15:22:13;11.90;99.90
6988;DHT22;3534;49.960;8.018;2023-01-08T15:24:41;11.90;99.90
6988;DHT22;3534;49.960;8.018;2023-01-08T15:27:17;11.80;99.90
6988;DHT22;3534;49.960;8.018;2023-01-08T15:29:47;11.80;99.90
6988;DHT22;3534;49.960;8.018;2023-01-08T15:32:20;11.80;99.90
6988;DHT22;3534;49.960;8.018;2023-01-08T15:34:48;11.80;99.90
6988;DHT22;3534;49.960;8.018;2023-01-08T15:37:15;11.80;99.90
6988;DHT22;3534;49.960;8.018;2023-01-08T15:39:42;11.80;99.90
6988;DHT22;3534;49.960;8.018;2023-01-08T15:42:17;11.80;99.90
6988;DHT22;3534;49.960;8.018;2023-01-08T15:45:02;11.80;99.90
6988;DHT22;3534;49.960;8.018;2023-01-08T15:47:30;11.80;99.90
6988;DHT22;3534;49.960;8.018;2023-01-08T15:49:57;11.80;99.90
6988;DHT22;3534;49.960;8.018;2023-01-08T15:52:26;11.80;99.90
6988;DHT22;3534;49.960;8.018;2023-01-08T15:54:54;11.70;99.90
6988;DHT22;3534;49.960;8.018;2023-01-08T15:57:21;11.70;99.90
6988;DHT22;3534;49.960;8.018;2023-01-08T15:59:48;11.70;99.90
6988;DHT22;3534;49.960;8.018;2023-01-08T16:02:14;11.70;99.90
6988;DHT22;3534;49.960;8.018;2023-01-08T16:04:43;11.70;99.90
6988;DHT22;3534;49.960;8.018;2023-01-08T16:07:09;11.70;99.90
6988;DHT22;3534;49.960;8.018;2023-01-08T16:09:36;11.70;99.90
6988;DHT22;3534;49.960;8.018;2023-01-08T16:12:03;11.70;99.90
6988;DHT22;3534;49.960;8.018;2023-01-08T16:14:30;11.70;99.90
6988;DHT22;3534;49.960;8.018;2023-01-08T16:16:58;11.70;99.90